Time;durP1;ratioP1;P1;durP2;ratioP2;P2;SDS_P1;SDS_P2;PMS_P1;PMS_P2;Temp;Humidity;BMP_temperature;BMP_pressure;BME280_temperature;BME280_humidity;BME280_pressure;Samples;Min_cycle;Max_cycle;Signal;HPM_P1;HPM_P2
2022/07/29 00:01:01;;;;;;;6.45;2.63;;;20.00;89.10;;;;;;5087779;28;20212;-51
2022/07/29 00:03:29;;;;;;;6.70;2.53;;;20.10;89.10;;;;;;5089006;28;20230;-52
2022/07/29 00:05:58;;;;;;;4.43;2.30;;;20.10;89.10;;;;;;5089292;28;20220;-52
2022/07/29 00:08:27;;;;;;;5.30;2.60;;;20.10;89.30;;;;;;5088840;28;20264;-52
2022/07/29 00:10:57;;;;;;;5.13;2.10;;;20.10;89.20;;;;;;5088959;28;20744;-51
2022/07/29 00:13:25;;;;;;;6.53;2.60;;;20.00;89.20;;;;;;5082683;28;20313;-51
2022/07/29 00:15:59;;;;;;;5.63;2.35;;;19.90;89.40;;;;;;5086350;28;20582;-51
2022/07/29 00:18:31;;;;;;;6.15;2.72;;;19.90;89.40;;;;;;5072331;28;20329;-51
2022/07/29 00:21:00;;;;;;;3.97;2.42;;;19.90;89.60;;;;;;5088690;28;20578;-51
2022/07/29 00:23:28;;;;;;;5.72;2.50;;;20.00;89.80;;;;;;5074387;28;20208;-51
2022/07/29 00:25:59;;;;;;;5.55;2.40;;;19.90;89.80;;;;;;5089654;28;20329;-51
2022/07/29 00:28:27;;;;;;;6.03;2.55;;;19.90;90.00;;;;;;5088881;28;20708;-51
2022/07/29 00:30:55;;;;;;;6.85;2.80;;;19.80;90.00;;;;;;5078829;28;20205;-51
2022/07/29 00:33:23;;;;;;;8.73;2.90;;;19.90;90.00;;;;;;5085437;28;20677;-51
2022/07/29 00:35:51;;;;;;;4.05;2.40;;;19.90;90.00;;;;;;5089477;28;20200;-51
2022/07/29 00:38:21;;;;;;;5.75;2.28;;;19.90;90.10;;;;;;5088469;28;20235;-51
2022/07/29 00:40:49;;;;;;;7.10;2.80;;;19.90;90.00;;;;;;5089067;28;20261;-51
2022/07/29 00:43:18;;;;;;;7.25;2.47;;;19.90;90.00;;;;;;5088907;28;20676;-51
2022/07/29 00:45:46;;;;;;;7.50;2.72;;;19.80;90.10;;;;;;5074672;28;20224;-51
2022/07/29 00:48:15;;;;;;;5.47;2.10;;;19.80;90.20;;;;;;5076851;28;20658;-51
2022/07/29 00:50:43;;;;;;;8.60;2.58;;;19.80;90.20;;;;;;5087010;28;20954;-51
2022/07/29 00:53:13;;;;;;;3.70;2.25;;;19.80;90.20;;;;;;5090416;28;20212;-51
2022/07/29 00:55:41;;;;;;;4.20;2.33;;;19.80;90.20;;;;;;5093057;28;20262;-51
2022/07/29 00:58:12;;;;;;;6.10;2.55;;;19.70;90.20;;;;;;5092866;28;20278;-51
2022/07/29 01:00:42;;;;;;;9.13;2.65;;;19.70;90.30;;;;;;5092438;28;20212;-52
2022/07/29 01:03:12;;;;;;;3.92;2.40;;;19.70;90.30;;;;;;5081241;28;20204;-51
2022/07/29 01:05:42;;;;;;;6.80;2.40;;;19.70;90.50;;;;;;5092502;28;20676;-51
2022/07/29 01:08:19;;;;;;;6.22;2.40;;;19.60;90.40;;;;;;5091495;28;20554;-51
2022/07/29 01:10:48;;;;;;;9.02;2.63;;;19.60;90.60;;;;;;5091778;28;20212;-51
2022/07/29 01:13:17;;;;;;;5.65;2.40;;;19.60;90.50;;;;;;5091978;28;20200;-51
2022/07/29 01:15:52;;;;;;;6.38;2.80;;;19.60;90.60;;;;;;5092158;28;20212;-51
2022/07/29 01:18:27;;;;;;;5.60;2.63;;;19.60;90.90;;;;;;5092942;28;20216;-51
2022/07/29 01:21:20;;;;;;;7.20;2.97;;;19.50;91.00;;;;;;5092173;28;20761;-52
2022/07/29 01:24:12;;;;;;;5.75;2.70;;;19.50;90.90;;;;;;5081735;28;20212;-51
2022/07/29 01:26:47;;;;;;;6.15;2.38;;;19.50;91.10;;;;;;5091978;28;20324;-51
2022/07/29 01:29:27;;;;;;;3.17;2.05;;;19.50;91.00;;;;;;5091960;28;20207;-52
2022/07/29 01:32:09;;;;;;;5.68;2.40;;;19.50;91.00;;;;;;5091133;28;20954;-51
2022/07/29 01:35:03;;;;;;;2.58;2.17;;;19.40;91.10;;;;;;5092175;28;20204;-51
2022/07/29 01:37:38;;;;;;;3.75;2.20;;;19.40;91.30;;;;;;5090980;28;20215;-52
2022/07/29 01:40:13;;;;;;;5.43;2.50;;;19.40;91.50;;;;;;5092021;28;20734;-51
2022/07/29 01:42:45;;;;;;;4.53;2.42;;;19.40;91.20;;;;;;5091669;28;20257;-51
2022/07/29 01:45:19;;;;;;;4.00;2.28;;;19.30;91.40;;;;;;5092086;28;20208;-51
2022/07/29 01:47:53;;;;;;;5.07;2.35;;;19.30;91.40;;;;;;5091040;28;20227;-51
2022/07/29 01:50:27;;;;;;;5.28;2.30;;;19.30;91.40;;;;;;5091807;28;20201;-50
2022/07/29 01:52:59;;;;;;;6.70;2.63;;;19.30;91.50;;;;;;5091055;28;20224;-51
2022/07/29 01:55:34;;;;;;;4.30;2.30;;;19.30;91.50;;;;;;5091418;28;20689;-51
2022/07/29 01:58:05;;;;;;;5.95;2.65;;;19.30;91.90;;;;;;5091123;28;20223;-51
2022/07/29 02:00:36;;;;;;;2.88;2.00;;;19.30;91.60;;;;;;5091140;28;20200;-51
2022/07/29 02:03:09;;;;;;;5.75;2.50;;;19.30;91.60;;;;;;5091203;28;20245;-50
2022/07/29 02:05:39;;;;;;;5.55;2.30;;;19.30;91.40;;;;;;5090284;28;20212;-52
2022/07/29 02:08:10;;;;;;;5.63;2.40;;;19.30;91.50;;;;;;5090484;28;20654;-51
2022/07/29 02:10:40;;;;;;;6.80;2.63;;;19.30;91.50;;;;;;5090869;28;20204;-51
2022/07/29 02:13:10;;;;;;;4.15;2.00;;;19.30;91.70;;;;;;5091384;28;20246;-51
2022/07/29 02:15:42;;;;;;;3.38;2.22;;;19.30;91.40;;;;;;5090255;28;20234;-51
2022/07/29 02:18:15;;;;;;;5.97;2.25;;;19.30;91.40;;;;;;5091379;28;20227;-51
2022/07/29 02:20:46;;;;;;;6.40;2.42;;;19.40;91.70;;;;;;5106304;28;20212;-51
2022/07/29 02:23:18;;;;;;;5.47;2.30;;;19.30;91.60;;;;;;5078018;28;20196;-51
2022/07/29 02:25:49;;;;;;;4.00;2.25;;;19.30;92.20;;;;;;5090915;28;20204;-51
2022/07/29 02:28:21;;;;;;;4.90;2.65;;;19.30;91.80;;;;;;5089903;28;20224;-51
2022/07/29 02:30:53;;;;;;;8.20;2.30;;;19.30;91.60;;;;;;5090909;28;20602;-51
2022/07/29 02:33:22;;;;;;;4.70;2.15;;;19.30;91.80;;;;;;5090880;28;20199;-51
2022/07/29 02:35:51;;;;;;;3.25;2.00;;;19.30;91.80;;;;;;5090444;28;20213;-51
2022/07/29 02:41:11;;;;;;;5.72;2.47;;;19.30;91.50;;;;;;5090687;28;20754;-51
2022/07/29 02:43:40;;;;;;;4.03;2.03;;;19.40;91.40;;;;;;5090473;28;20204;-51
2022/07/29 02:46:13;;;;;;;5.07;2.20;;;19.40;91.70;;;;;;5090670;28;20212;-51
2022/07/29 02:49:02;;;;;;;3.03;2.20;;;19.40;91.90;;;;;;5078551;28;20212;-51
2022/07/29 02:51:39;;;;;;;4.50;2.42;;;19.40;91.90;;;;;;5106335;28;20199;-51
2022/07/29 02:54:19;;;;;;;7.22;2.60;;;19.30;92.70;;;;;;5110488;28;20200;-51
2022/07/29 02:56:48;;;;;;;3.58;2.30;;;19.20;93.30;;;;;;5110410;28;20788;-51
2022/07/29 02:59:22;;;;;;;6.55;2.85;;;19.20;93.30;;;;;;5110160;28;20219;-51
2022/07/29 03:01:53;;;;;;;7.82;2.40;;;19.20;93.60;;;;;;5109435;28;20268;-51
2022/07/29 03:04:22;;;;;;;7.38;2.65;;;19.20;93.30;;;;;;5110300;28;20607;-51
2022/07/29 03:06:53;;;;;;;8.60;2.50;;;19.10;93.00;;;;;;5109992;28;20719;-51
2022/07/29 03:09:22;;;;;;;4.97;2.42;;;19.10;93.10;;;;;;5110288;28;20211;-52
2022/07/29 03:11:50;;;;;;;4.65;2.20;;;19.10;93.00;;;;;;5110027;28;20260;-51
2022/07/29 03:14:19;;;;;;;6.70;2.45;;;19.10;93.30;;;;;;5110613;28;20265;-51
2022/07/29 03:16:49;;;;;;;4.03;2.30;;;19.10;93.40;;;;;;5109669;28;20231;-51
2022/07/29 03:19:19;;;;;;;5.55;2.30;;;19.00;93.10;;;;;;5110335;28;20211;-51
2022/07/29 03:21:48;;;;;;;4.68;2.15;;;19.00;93.00;;;;;;5109799;28;20199;-51
2022/07/29 03:24:27;;;;;;;4.97;1.98;;;19.00;93.00;;;;;;5109962;28;20208;-51
2022/07/29 03:26:56;;;;;;;8.50;2.58;;;19.10;93.00;;;;;;5110065;28;20284;-51
2022/07/29 03:29:24;;;;;;;4.40;2.10;;;19.00;92.90;;;;;;5110278;28;20347;-51
2022/07/29 03:32:02;;;;;;;6.53;2.30;;;19.00;92.80;;;;;;5109756;28;20290;-51
2022/07/29 03:34:37;;;;;;;3.55;2.13;;;19.00;92.70;;;;;;5104182;28;20221;-51
2022/07/29 03:37:06;;;;;;;3.80;2.08;;;18.90;92.90;;;;;;5109539;28;20226;-51
2022/07/29 03:39:39;;;;;;;4.15;2.50;;;18.90;93.10;;;;;;5109666;28;20561;-51
2022/07/29 03:42:09;;;;;;;6.45;2.35;;;18.90;93.20;;;;;;5110209;28;20265;-50
2022/07/29 03:44:39;;;;;;;4.28;2.42;;;18.80;93.20;;;;;;5109565;28;20218;-51
2022/07/29 03:47:10;;;;;;;6.65;2.60;;;18.70;93.40;;;;;;5094960;28;20622;-51
2022/07/29 03:49:41;;;;;;;8.07;2.42;;;18.70;93.70;;;;;;5100027;28;20261;-51
2022/07/29 03:52:09;;;;;;;6.75;2.60;;;18.60;93.80;;;;;;5089317;28;20208;-51
2022/07/29 03:54:37;;;;;;;5.05;2.42;;;18.60;94.00;;;;;;5089370;28;20262;-51
2022/07/29 03:57:07;;;;;;;6.15;2.50;;;18.60;93.90;;;;;;5087674;28;20227;-52
2022/07/29 03:59:36;;;;;;;4.68;2.33;;;18.60;93.90;;;;;;5109800;28;20207;-51
2022/07/29 04:02:05;;;;;;;14.07;3.00;;;18.50;94.00;;;;;;5097796;28;20589;-52
2022/07/29 04:04:34;;;;;;;7.03;2.58;;;18.60;93.90;;;;;;5113090;28;20196;-51
2022/07/29 04:07:04;;;;;;;6.05;2.33;;;18.60;93.90;;;;;;5109745;28;20235;-52
2022/07/29 04:09:32;;;;;;;6.70;2.35;;;18.50;93.90;;;;;;5110817;28;20281;-52
2022/07/29 04:12:00;;;;;;;5.07;2.35;;;18.60;93.80;;;;;;5104498;28;20207;-52
2022/07/29 04:14:47;;;;;;;5.93;2.60;;;18.60;93.80;;;;;;5109519;28;20550;-52
2022/07/29 04:17:15;;;;;;;4.78;2.60;;;18.60;93.80;;;;;;5108737;28;20296;-52
2022/07/29 04:19:43;;;;;;;2.95;2.20;;;18.50;93.80;;;;;;5109611;28;20245;-52
2022/07/29 04:22:13;;;;;;;6.22;2.25;;;18.60;93.80;;;;;;5109442;28;20550;-52
2022/07/29 04:24:41;;;;;;;6.90;2.30;;;18.60;93.90;;;;;;5107927;28;20272;-53
2022/07/29 04:27:11;;;;;;;5.25;2.13;;;18.60;93.80;;;;;;5109673;28;20314;-52
2022/07/29 04:29:39;;;;;;;8.15;2.38;;;18.60;94.20;;;;;;5113450;28;20227;-51
2022/07/29 04:32:24;;;;;;;5.63;2.10;;;18.60;94.00;;;;;;5113276;28;20225;-53
2022/07/29 04:34:52;;;;;;;5.55;2.17;;;18.60;93.80;;;;;;5113474;28;20200;-52
2022/07/29 04:37:21;;;;;;;3.08;2.03;;;18.70;94.00;;;;;;5112495;28;20235;-51
2022/07/29 04:39:50;;;;;;;3.85;2.25;;;18.70;93.90;;;;;;5098137;28;20623;-51
2022/07/29 04:42:18;;;;;;;7.18;2.08;;;18.70;93.90;;;;;;5096729;28;20196;-51
2022/07/29 04:44:54;;;;;;;4.30;2.22;;;18.70;94.00;;;;;;5084296;28;20266;-52
2022/07/29 04:47:22;;;;;;;6.63;2.50;;;18.70;94.10;;;;;;5102041;28;20269;-52
2022/07/29 04:49:50;;;;;;;4.82;2.10;;;18.60;94.20;;;;;;5112955;28;20304;-52
2022/07/29 04:52:18;;;;;;;7.13;2.50;;;18.60;94.00;;;;;;5107444;28;20810;-51
2022/07/29 04:54:48;;;;;;;8.07;2.08;;;18.60;94.10;;;;;;5105478;28;20237;-51
2022/07/29 04:57:16;;;;;;;5.95;1.92;;;18.70;94.20;;;;;;5112383;28;20312;-51
2022/07/29 04:59:44;;;;;;;4.70;2.40;;;18.70;94.10;;;;;;5112807;28;20204;-52
2022/07/29 05:02:12;;;;;;;6.22;2.05;;;18.70;94.10;;;;;;5099681;28;20842;-51
2022/07/29 05:04:40;;;;;;;4.82;2.00;;;18.70;94.10;;;;;;5112611;28;20281;-51
2022/07/29 05:07:08;;;;;;;4.10;2.33;;;18.70;94.00;;;;;;5111813;28;20235;-52
2022/07/29 05:09:36;;;;;;;4.55;2.42;;;18.70;94.30;;;;;;5111818;28;20227;-52
2022/07/29 05:12:07;;;;;;;6.43;2.05;;;18.70;94.20;;;;;;5107966;28;20203;-52
2022/07/29 05:14:35;;;;;;;4.53;2.00;;;18.70;94.50;;;;;;5112050;28;20204;-51
2022/07/29 05:17:03;;;;;;;3.45;2.08;;;18.70;94.30;;;;;;5112238;28;20671;-51
2022/07/29 05:19:31;;;;;;;4.75;2.20;;;18.70;94.60;;;;;;5112271;28;20203;-52
2022/07/29 05:22:00;;;;;;;4.03;2.30;;;18.80;94.60;;;;;;5111857;28;20204;-52
2022/07/29 05:24:28;;;;;;;4.45;2.13;;;18.80;94.10;;;;;;5111824;28;20208;-52
2022/07/29 05:26:56;;;;;;;5.40;2.13;;;18.90;94.30;;;;;;5104962;28;20228;-51
2022/07/29 05:29:25;;;;;;;5.10;2.13;;;18.90;94.50;;;;;;5086191;28;20225;-51
2022/07/29 05:32:12;;;;;;;3.10;2.00;;;19.00;95.00;;;;;;5089464;28;20672;-51
2022/07/29 05:34:40;;;;;;;4.90;2.45;;;19.00;95.00;;;;;;5112132;28;20212;-52
2022/07/29 05:37:18;;;;;;;5.57;2.30;;;19.00;95.40;;;;;;5101598;28;20227;-51
2022/07/29 05:39:47;;;;;;;5.43;2.45;;;18.90;95.60;;;;;;5111376;28;20672;-52
2022/07/29 05:42:23;;;;;;;4.53;2.58;;;18.90;95.90;;;;;;5111998;28;20196;-52
2022/07/29 05:44:53;;;;;;;3.42;2.30;;;18.90;96.20;;;;;;5111511;28;20203;-52
2022/07/29 05:47:21;;;;;;;8.02;2.30;;;18.90;96.00;;;;;;5100413;28;20220;-52
2022/07/29 05:49:50;;;;;;;6.68;2.58;;;18.90;95.90;;;;;;5100002;28;20231;-52
2022/07/29 05:52:18;;;;;;;8.90;2.30;;;18.90;96.70;;;;;;5111650;28;20252;-51
2022/07/29 05:54:46;;;;;;;6.45;2.78;;;18.90;97.40;;;;;;5111862;28;20199;-52
2022/07/29 05:57:17;;;;;;;4.95;2.30;;;18.90;97.30;;;;;;5111701;28;20231;-51
2022/07/29 05:59:46;;;;;;;7.53;2.45;;;18.90;96.90;;;;;;5111718;28;20613;-52
2022/07/29 06:02:16;;;;;;;4.93;2.63;;;18.90;97.20;;;;;;5111038;28;20583;-52
2022/07/29 06:04:44;;;;;;;6.00;2.33;;;18.90;97.20;;;;;;5111510;28;20280;-52
2022/07/29 06:07:12;;;;;;;4.05;2.30;;;18.80;97.70;;;;;;5111045;28;20235;-52
2022/07/29 06:09:40;;;;;;;4.68;2.20;;;18.70;97.70;;;;;;5110872;28;20227;-51
2022/07/29 06:12:09;;;;;;;4.43;2.45;;;18.70;98.40;;;;;;5111573;28;20245;-52
2022/07/29 06:14:37;;;;;;;8.27;2.70;;;18.50;99.60;;;;;;5111183;28;20212;-52
2022/07/29 06:17:06;;;;;;;5.35;2.55;;;18.40;99.90;;;;;;5110943;28;20227;-52
2022/07/29 06:19:36;;;;;;;7.75;2.60;;;18.10;99.90;;;;;;5110891;28;20203;-52
2022/07/29 06:22:04;;;;;;;7.53;2.90;;;17.90;99.90;;;;;;5111462;28;20552;-52
2022/07/29 06:24:33;;;;;;;4.45;2.50;;;17.70;99.90;;;;;;5110980;28;20207;-52
2022/07/29 06:27:01;;;;;;;5.25;3.03;;;17.60;99.90;;;;;;5111692;28;20228;-51
2022/07/29 06:29:29;;;;;;;3.78;2.47;;;17.50;99.90;;;;;;5104939;28;20220;-51
2022/07/29 06:31:57;;;;;;;7.75;2.70;;;17.40;99.90;;;;;;5111055;28;20660;-52
2022/07/29 06:34:25;;;;;;;4.65;3.00;;;17.30;99.90;;;;;;5111862;28;20211;-52
2022/07/29 06:36:54;;;;;;;5.47;2.92;;;17.30;99.90;;;;;;5111368;28;20264;-52
2022/07/29 06:39:23;;;;;;;6.72;3.05;;;17.30;99.90;;;;;;5110963;28;20202;-52
2022/07/29 06:41:51;;;;;;;9.00;3.40;;;17.30;99.90;;;;;;5110701;28;20269;-51
2022/07/29 06:44:19;;;;;;;7.03;3.75;;;17.30;99.90;;;;;;5087967;28;20270;-52
2022/07/29 06:46:48;;;;;;;5.78;3.33;;;17.30;99.90;;;;;;5089449;28;20204;-51
2022/07/29 06:49:17;;;;;;;6.90;2.92;;;17.40;99.90;;;;;;5090277;28;20227;-52
2022/07/29 06:51:45;;;;;;;6.05;3.30;;;17.50;99.90;;;;;;5089543;28;20204;-52
2022/07/29 06:54:14;;;;;;;6.35;3.30;;;17.60;99.90;;;;;;5089717;28;20200;-52
2022/07/29 06:56:46;;;;;;;6.95;3.35;;;17.80;99.90;;;;;;5091525;28;20212;-52
2022/07/29 06:59:14;;;;;;;6.80;3.03;;;17.80;99.90;;;;;;5108029;28;20538;-51
2022/07/29 07:01:43;;;;;;;6.82;3.33;;;17.90;99.90;;;;;;5099001;28;20208;-54
2022/07/29 07:04:12;;;;;;;5.60;3.00;;;17.90;99.90;;;;;;5107145;28;20302;-51
2022/07/29 07:06:41;;;;;;;5.07;2.90;;;18.00;99.90;;;;;;5110534;28;20218;-52
2022/07/29 07:09:10;;;;;;;5.05;2.90;;;18.00;99.90;;;;;;5110257;28;20680;-52
2022/07/29 07:11:39;;;;;;;5.68;3.22;;;18.10;99.90;;;;;;5109549;28;20664;-52
2022/07/29 07:14:07;;;;;;;3.95;3.00;;;18.10;99.90;;;;;;5110630;28;20257;-52
2022/07/29 07:16:35;;;;;;;4.82;3.38;;;18.10;99.90;;;;;;5109422;28;20256;-51
2022/07/29 07:19:04;;;;;;;5.28;3.50;;;18.20;99.90;;;;;;5097244;28;20236;-51
2022/07/29 07:21:34;;;;;;;6.68;3.30;;;18.30;99.90;;;;;;5109065;28;20199;-52
2022/07/29 07:24:03;;;;;;;9.18;3.13;;;18.30;99.90;;;;;;5109914;28;20211;-52
2022/07/29 07:26:31;;;;;;;5.38;2.78;;;18.30;99.90;;;;;;5097225;28;20272;-52
2022/07/29 07:29:00;;;;;;;5.85;2.90;;;18.40;99.90;;;;;;5103023;28;20668;-52
2022/07/29 07:31:28;;;;;;;5.47;3.15;;;18.50;99.90;;;;;;5085347;28;20254;-52
2022/07/29 07:33:57;;;;;;;6.22;3.40;;;18.60;99.90;;;;;;5094294;28;20200;-52
2022/07/29 07:36:25;;;;;;;6.43;3.33;;;18.70;99.90;;;;;;5099641;28;20221;-52
2022/07/29 07:38:53;;;;;;;6.82;3.08;;;19.40;99.90;;;;;;5103265;28;20290;-52
2022/07/29 07:41:21;;;;;;;6.07;3.50;;;19.80;99.90;;;;;;5078102;28;20288;-52
2022/07/29 07:43:49;;;;;;;5.43;3.33;;;20.70;99.90;;;;;;5103152;28;20253;-52
2022/07/29 07:46:19;;;;;;;8.60;3.28;;;21.50;99.90;;;;;;5086306;28;20212;-52
2022/07/29 07:48:47;;;;;;;6.13;3.50;;;21.30;99.90;;;;;;5103392;28;20277;-52
2022/07/29 07:51:15;;;;;;;8.63;3.60;;;21.10;99.90;;;;;;5108623;28;20591;-54
2022/07/29 07:53:44;;;;;;;4.18;3.00;;;21.10;99.90;;;;;;5108479;28;20256;-52
2022/07/29 07:56:12;;;;;;;4.55;3.05;;;21.60;99.90;;;;;;5109252;28;20291;-52
2022/07/29 07:58:40;;;;;;;5.90;3.28;;;21.60;99.90;;;;;;5109375;28;20231;-53
2022/07/29 08:01:08;;;;;;;3.42;3.00;;;21.40;99.90;;;;;;5078698;28;20200;-52
2022/07/29 08:03:39;;;;;;;4.80;3.22;;;21.30;99.90;;;;;;5104783;28;20209;-52
2022/07/29 08:06:07;;;;;;;5.38;2.75;;;21.40;99.90;;;;;;5114276;28;20207;-52
2022/07/29 08:08:35;;;;;;;5.38;3.30;;;21.50;99.90;;;;;;5112791;28;20288;-52
2022/07/29 08:11:03;;;;;;;5.50;3.10;;;21.50;99.90;;;;;;5114177;28;20273;-52
2022/07/29 08:13:37;;;;;;;4.65;3.20;;;21.60;99.90;;;;;;5113721;28;20573;-52
2022/07/29 08:16:14;;;;;;;4.55;3.17;;;21.60;99.90;;;;;;5113783;28;20987;-52
2022/07/29 08:18:46;;;;;;;4.35;3.05;;;21.70;99.90;;;;;;5113240;28;20249;-52
2022/07/29 08:21:15;;;;;;;5.80;3.45;;;21.80;99.90;;;;;;5114330;28;20203;-52
2022/07/29 08:23:49;;;;;;;5.57;3.28;;;22.00;99.90;;;;;;5113591;28;20203;-52
2022/07/29 08:26:26;;;;;;;5.05;3.38;;;22.00;99.90;;;;;;5101753;28;20199;-52
2022/07/29 08:28:54;;;;;;;5.05;3.20;;;22.10;99.90;;;;;;5113715;28;20231;-52
2022/07/29 08:31:22;;;;;;;5.78;3.35;;;22.20;99.90;;;;;;5113425;28;20219;-52
2022/07/29 08:33:52;;;;;;;5.82;3.42;;;22.20;99.90;;;;;;5113317;28;20264;-52
2022/07/29 08:36:21;;;;;;;4.93;3.28;;;22.20;99.90;;;;;;5113429;28;20623;-52
2022/07/29 08:38:50;;;;;;;4.00;3.60;;;22.20;99.90;;;;;;5112677;28;20228;-52
2022/07/29 08:41:19;;;;;;;4.80;3.40;;;22.30;99.90;;;;;;5113144;28;20322;-51
2022/07/29 08:43:47;;;;;;;5.15;3.70;;;22.40;99.90;;;;;;5113427;28;20212;-52
2022/07/29 08:46:16;;;;;;;5.25;3.45;;;22.50;99.90;;;;;;5103538;28;20216;-51
2022/07/29 08:48:45;;;;;;;4.07;3.45;;;22.40;99.90;;;;;;5112002;28;20223;-52
2022/07/29 08:51:17;;;;;;;7.05;3.80;;;22.50;99.90;;;;;;5113163;28;20230;-52
2022/07/29 08:53:47;;;;;;;5.28;3.95;;;22.60;99.90;;;;;;5112247;28;20204;-52
2022/07/29 08:56:17;;;;;;;5.05;3.83;;;22.60;99.90;;;;;;5113370;28;20245;-52
2022/07/29 08:58:47;;;;;;;5.93;3.85;;;22.70;99.90;;;;;;5112530;28;20228;-52
2022/07/29 09:01:23;;;;;;;4.80;3.80;;;22.90;99.90;;;;;;5108098;28;20192;-52
2022/07/29 09:04:10;;;;;;;5.35;3.35;;;23.00;99.90;;;;;;5106882;28;20297;-52
2022/07/29 09:06:43;;;;;;;6.50;3.95;;;23.10;99.90;;;;;;5104620;28;20284;-53
2022/07/29 09:09:11;;;;;;;7.45;3.78;;;23.40;99.90;;;;;;5112407;28;20203;-52
2022/07/29 09:11:40;;;;;;;5.03;3.40;;;23.50;99.90;;;;;;5112095;28;20703;-52
2022/07/29 09:14:08;;;;;;;5.68;4.00;;;23.50;99.90;;;;;;5112159;28;20207;-52
2022/07/29 09:16:54;;;;;;;6.93;3.63;;;23.70;99.90;;;;;;5111701;28;20225;-52
2022/07/29 09:19:24;;;;;;;6.68;3.67;;;24.00;99.90;;;;;;5112764;28;20207;-52
2022/07/29 09:22:01;;;;;;;5.00;3.33;;;24.00;99.90;;;;;;5112386;28;20638;-52
2022/07/29 09:24:44;;;;;;;5.97;3.92;;;24.00;99.90;;;;;;5112158;28;20207;-52
2022/07/29 09:27:21;;;;;;;8.68;3.97;;;24.10;99.90;;;;;;5112407;28;20590;-52
2022/07/29 09:29:58;;;;;;;6.88;3.58;;;24.00;99.90;;;;;;5086691;28;20204;-52
2022/07/29 09:32:26;;;;;;;4.55;3.30;;;23.90;99.90;;;;;;5111616;28;20246;-52
2022/07/29 09:35:15;;;;;;;3.67;3.28;;;23.80;99.90;;;;;;5112510;28;20207;-52
2022/07/29 09:37:46;;;;;;;4.63;3.17;;;23.80;99.90;;;;;;5111808;28;20273;-52
2022/07/29 09:40:16;;;;;;;3.95;3.10;;;23.90;99.90;;;;;;5112310;28;20256;-51
2022/07/29 09:42:45;;;;;;;3.85;2.75;;;23.80;99.90;;;;;;5112079;28;20203;-52
2022/07/29 09:45:26;;;;;;;6.45;3.20;;;23.70;99.90;;;;;;5111332;28;20199;-52
2022/07/29 09:47:56;;;;;;;3.22;2.78;;;23.70;99.90;;;;;;5103131;28;20604;-52
2022/07/29 09:50:36;;;;;;;7.03;3.38;;;23.70;99.90;;;;;;5112015;28;20204;-52
2022/07/29 09:53:05;;;;;;;6.97;3.13;;;23.70;99.90;;;;;;5111880;28;20245;-52
2022/07/29 09:55:33;;;;;;;5.78;3.33;;;23.80;99.90;;;;;;5111839;28;20196;-52
2022/07/29 09:58:17;;;;;;;6.30;3.20;;;23.90;99.90;;;;;;5111976;28;20235;-52
2022/07/29 10:00:46;;;;;;;3.92;2.75;;;23.90;99.90;;;;;;5111015;28;20260;-52
2022/07/29 10:03:15;;;;;;;5.38;2.90;;;23.90;99.90;;;;;;5103618;28;20208;-52
2022/07/29 10:05:45;;;;;;;5.93;3.10;;;24.00;99.90;;;;;;5098244;28;20211;-52
2022/07/29 10:08:14;;;;;;;5.43;2.85;;;24.10;99.90;;;;;;5111380;28;20288;-52
2022/07/29 10:10:44;;;;;;;4.72;2.85;;;24.20;99.90;;;;;;5111150;28;20211;-53
2022/07/29 10:13:13;;;;;;;6.05;3.05;;;24.20;99.90;;;;;;5111523;28;20212;-52
2022/07/29 10:15:45;;;;;;;7.07;3.10;;;24.30;99.90;;;;;;5111590;28;20207;-52
2022/07/29 10:18:16;;;;;;;3.97;2.80;;;24.30;99.90;;;;;;5108742;28;20227;-52
2022/07/29 10:20:45;;;;;;;5.43;3.22;;;24.40;99.90;;;;;;5100117;28;20208;-52
2022/07/29 10:23:15;;;;;;;4.05;2.80;;;24.50;99.90;;;;;;5110435;28;20203;-52
2022/07/29 10:25:43;;;;;;;4.32;3.10;;;24.60;99.90;;;;;;5110141;28;20208;-52
2022/07/29 10:28:14;;;;;;;4.80;3.00;;;24.60;99.90;;;;;;5091267;28;20318;-52
2022/07/29 10:30:45;;;;;;;4.88;3.05;;;24.50;99.90;;;;;;5110996;28;20669;-52
2022/07/29 10:33:30;;;;;;;7.50;3.50;;;24.50;99.90;;;;;;5110832;28;20215;-52
2022/07/29 10:36:23;;;;;;;5.03;3.10;;;24.50;99.90;;;;;;5111053;28;20324;-52
2022/07/29 10:38:58;;;;;;;5.63;3.20;;;24.60;99.90;;;;;;5110702;28;20231;-52
2022/07/29 10:41:42;;;;;;;6.10;3.22;;;24.80;99.90;;;;;;5108313;28;20737;-53
2022/07/29 10:44:16;;;;;;;4.93;3.30;;;25.00;99.90;;;;;;5100221;28;20838;-53
2022/07/29 10:46:51;;;;;;;3.63;3.10;;;25.10;99.90;;;;;;5099421;28;20199;-52
2022/07/29 10:49:20;;;;;;;4.35;3.10;;;25.20;99.90;;;;;;5111088;28;20204;-53
2022/07/29 10:51:54;;;;;;;4.22;3.13;;;25.20;99.90;;;;;;5110365;28;20314;-53
2022/07/29 10:57:26;;;;;;;8.45;3.15;;;25.30;99.90;;;;;;5086026;28;20570;-52
2022/07/29 11:00:33;;;;;;;6.35;3.20;;;25.30;99.90;;;;;;5075194;28;20324;-51
2022/07/29 11:03:03;;;;;;;6.72;2.92;;;25.30;99.90;;;;;;5077399;28;20774;-51
2022/07/29 11:05:54;;;;;;;5.35;3.08;;;25.30;99.90;;;;;;5085533;28;20200;-51
2022/07/29 11:08:26;;;;;;;7.03;3.40;;;25.40;99.90;;;;;;5085976;28;20289;-51
2022/07/29 11:11:30;;;;;;;4.93;3.00;;;25.30;99.90;;;;;;5089121;28;20634;-49
2022/07/29 11:14:00;;;;;;;6.85;3.05;;;25.30;99.90;;;;;;5080618;28;20207;-50
2022/07/29 11:17:03;;;;;;;4.50;3.00;;;25.50;99.90;;;;;;5086797;28;20727;-51
2022/07/29 11:19:51;;;;;;;6.20;3.00;;;25.70;99.90;;;;;;5064261;28;20236;-52
2022/07/29 11:22:33;;;;;;;5.72;3.03;;;26.00;99.90;;;;;;5085258;28;20208;-52
2022/07/29 11:25:17;;;;;;;3.47;3.10;;;26.20;99.90;;;;;;5086594;28;20212;-51
2022/07/29 11:27:45;;;;;;;4.75;3.00;;;26.30;99.90;;;;;;5081710;28;20224;-51
2022/07/29 11:30:16;;;;;;;4.97;3.00;;;26.30;99.90;;;;;;5066601;28;20213;-51
2022/07/29 11:32:46;;;;;;;5.45;3.60;;;26.30;99.90;;;;;;5072088;28;21065;-51
2022/07/29 11:35:18;;;;;;;3.92;3.15;;;26.30;99.90;;;;;;5075484;28;20216;-51
2022/07/29 11:38:26;;;;;;;5.72;3.55;;;26.30;99.90;;;;;;5085119;28;20230;-51
2022/07/29 11:41:24;;;;;;;4.25;3.40;;;26.40;99.90;;;;;;5085514;28;20296;-51
2022/07/29 11:43:54;;;;;;;4.70;3.20;;;26.40;99.90;;;;;;5069804;28;20239;-52
2022/07/29 11:46:48;;;;;;;5.50;3.25;;;26.60;99.90;;;;;;5075290;28;20224;-52
2022/07/29 11:49:20;;;;;;;5.53;3.50;;;26.80;99.90;;;;;;5065020;28;20242;-52
2022/07/29 11:52:02;;;;;;;5.07;3.25;;;26.80;99.90;;;;;;5086092;28;20258;-52
2022/07/29 11:54:33;;;;;;;6.72;3.72;;;26.90;99.90;;;;;;5085047;28;20608;-51
2022/07/29 11:57:22;;;;;;;5.63;3.10;;;27.10;99.90;;;;;;5085136;28;20323;-51
2022/07/29 12:00:06;;;;;;;5.50;3.47;;;27.30;99.90;;;;;;5085488;28;20208;-51
2022/07/29 12:02:42;;;;;;;5.55;3.47;;;27.30;99.30;;;;;;5070432;28;20200;-51
2022/07/29 12:05:16;;;;;;;4.57;3.13;;;27.30;99.00;;;;;;5084428;28;20510;-51
2022/07/29 12:08:16;;;;;;;4.18;3.17;;;27.20;99.80;;;;;;5074512;28;20233;-51
2022/07/29 12:10:45;;;;;;;4.90;3.20;;;27.10;99.60;;;;;;5071355;28;20204;-51
2022/07/29 12:13:16;;;;;;;3.88;3.00;;;26.90;98.90;;;;;;5071737;28;20205;-51
2022/07/29 12:15:53;;;;;;;6.00;3.30;;;26.80;99.50;;;;;;5071690;28;20278;-51
2022/07/29 12:18:23;;;;;;;5.60;3.17;;;26.80;98.80;;;;;;5064699;28;20235;-51
2022/07/29 12:20:58;;;;;;;4.55;2.97;;;27.00;98.80;;;;;;5068343;28;20205;-51
2022/07/29 12:23:30;;;;;;;5.78;3.50;;;27.00;98.60;;;;;;5059714;28;20210;-51
2022/07/29 12:26:05;;;;;;;7.32;3.60;;;27.10;98.60;;;;;;5065498;28;20200;-51
2022/07/29 12:28:38;;;;;;;4.45;2.90;;;27.20;98.80;;;;;;5061784;28;20239;-51
2022/07/29 12:31:07;;;;;;;4.95;3.25;;;27.50;98.20;;;;;;5071165;28;20262;-51
2022/07/29 12:33:37;;;;;;;5.97;3.35;;;27.70;99.20;;;;;;5071027;28;20219;-51
2022/07/29 12:36:05;;;;;;;3.60;3.30;;;27.80;99.30;;;;;;5070342;28;20225;-51
2022/07/29 12:38:35;;;;;;;5.25;3.00;;;27.90;98.60;;;;;;5070603;28;20980;-51
2022/07/29 12:41:04;;;;;;;6.15;3.05;;;27.90;99.50;;;;;;5071026;28;20278;-51
2022/07/29 12:43:32;;;;;;;5.35;3.50;;;27.90;99.90;;;;;;5070941;28;20727;-52
2022/07/29 12:46:13;;;;;;;4.43;3.55;;;27.90;99.40;;;;;;5063892;28;20618;-50
2022/07/29 12:48:44;;;;;;;6.40;3.00;;;27.60;97.70;;;;;;5068809;28;20228;-51
2022/07/29 12:51:14;;;;;;;3.85;3.53;;;27.50;98.20;;;;;;5069998;28;20701;-51
2022/07/29 12:53:42;;;;;;;5.60;3.25;;;27.60;99.50;;;;;;5070619;28;20262;-52
2022/07/29 12:56:16;;;;;;;4.30;3.20;;;27.50;97.90;;;;;;5070140;28;20480;-51
2022/07/29 12:59:13;;;;;;;4.75;3.30;;;27.50;98.00;;;;;;5062634;28;20399;-51
2022/07/29 13:01:41;;;;;;;4.78;3.30;;;27.40;98.80;;;;;;5062533;28;20202;-51
2022/07/29 13:04:11;;;;;;;3.45;3.00;;;27.50;98.80;;;;;;5070672;28;20212;-51
2022/07/29 13:06:41;;;;;;;4.00;3.30;;;27.50;98.00;;;;;;5070069;28;20590;-51
2022/07/29 13:09:14;;;;;;;5.45;3.60;;;27.50;97.50;;;;;;5054312;28;20260;-52
2022/07/29 13:11:44;;;;;;;4.75;3.72;;;27.40;98.00;;;;;;5042569;28;20263;-52
2022/07/29 13:14:33;;;;;;;4.97;3.50;;;27.40;97.70;;;;;;5050587;28;20227;-51
2022/07/29 13:17:05;;;;;;;6.15;3.30;;;27.40;97.70;;;;;;5050714;28;20315;-51
2022/07/29 13:19:37;;;;;;;6.20;3.88;;;27.50;99.30;;;;;;5048373;28;20193;-51